createdAt,value
2023-01-22T00:00:40.819Z,103026.66
2023-01-22T00:03:10.525Z,103026.84
2023-01-22T00:05:39.931Z,103029.38
2023-01-22T00:08:11.954Z,103016.88
2023-01-22T00:10:41.392Z,103015.59
2023-01-22T00:13:10.825Z,103017.00
2023-01-22T00:15:41.751Z,103010.13
2023-01-22T00:18:11.397Z,103002.16
2023-01-22T00:20:41.709Z,103001.97
2023-01-22T00:23:13.789Z,102994.91
2023-01-22T00:25:43.216Z,102992.19
2023-01-22T00:28:13.123Z,102987.63
2023-01-22T00:30:42.555Z,102983.47
2023-01-22T00:33:12.037Z,102986.44
2023-01-22T00:35:41.743Z,102981.13
2023-01-22T00:38:13.774Z,102983.88
2023-01-22T00:40:43.175Z,102975.34
2023-01-22T00:43:12.615Z,102976.97
2023-01-22T00:45:42.328Z,102972.81
2023-01-22T00:48:11.733Z,102970.81
2023-01-22T00:50:41.119Z,102975.34
2023-01-22T00:53:13.163Z,102970.28
2023-01-22T00:55:42.917Z,102971.00
2023-01-22T00:58:12.601Z,102964.09
2023-01-22T01:00:42.302Z,102965.53
2023-01-22T01:03:24.476Z,102963.38
2023-01-22T01:05:56.404Z,102968.06
2023-01-22T01:08:29.291Z,102961.94
2023-01-22T01:10:59.273Z,102960.00
2023-01-22T01:13:29.975Z,102965.41
2023-01-22T01:16:03.821Z,102969.94
2023-01-22T01:18:34.153Z,102969.63
2023-01-22T01:21:04.921Z,102975.03
2023-01-22T01:23:38.188Z,102961.28
2023-01-22T01:26:08.602Z,102963.81
2023-01-22T01:28:39.093Z,102961.63
2023-01-22T01:31:10.263Z,102957.47
2023-01-22T01:33:40.083Z,102955.66
2023-01-22T01:36:11.309Z,102957.66
2023-01-22T01:38:43.942Z,102955.47
2023-01-22T01:41:15.265Z,102956.53
2023-01-22T01:43:44.939Z,102949.66
2023-01-22T01:46:19.278Z,102954.72
2023-01-22T01:48:51.135Z,102958.00
2023-01-22T01:51:23.204Z,102958.00
2023-01-22T01:53:55.410Z,102960.19
2023-01-22T01:56:28.174Z,102964.53
2023-01-22T01:59:02.390Z,102958.34
2023-01-22T02:01:31.869Z,102962.00
2023-01-22T02:04:01.906Z,102958.22
2023-01-22T02:06:43.853Z,102959.09
2023-01-22T02:09:16.261Z,102960.16
2023-01-22T02:11:46.145Z,102957.59
2023-01-22T02:14:18.246Z,102958.66
2023-01-22T02:16:47.809Z,102958.88
2023-01-22T02:19:17.919Z,102954.72
2023-01-22T02:21:50.011Z,102952.94
2023-01-22T02:24:19.953Z,102950.59
2023-01-22T02:26:49.335Z,102953.66
2023-01-22T02:29:19.043Z,102946.78
2023-01-22T02:31:48.562Z,102964.34
2023-01-22T02:34:18.072Z,102952.19
2023-01-22T02:36:50.014Z,102952.22
2023-01-22T02:39:19.501Z,102955.66
2023-01-22T02:41:48.944Z,102952.94
2023-01-22T02:44:18.381Z,102952.19
2023-01-22T02:46:47.757Z,102945.47
2023-01-22T02:49:17.372Z,102945.13
2023-01-22T02:51:47.203Z,102938.38
2023-01-22T02:54:19.211Z,102941.50
2023-01-22T02:56:48.658Z,102930.97
2023-01-22T02:59:18.256Z,102932.28
2023-01-22T03:01:47.676Z,102935.34
2023-01-22T03:04:17.097Z,102943.88
2023-01-22T03:06:48.829Z,102943.72
2023-01-22T03:09:21.030Z,102937.16
2023-01-22T03:11:50.468Z,102938.44
2023-01-22T03:14:32.366Z,102938.44
2023-01-22T03:17:14.818Z,102938.81
2023-01-22T03:19:57.016Z,102937.91
2023-01-22T03:22:26.685Z,102924.31
2023-01-22T03:25:00.574Z,102935.56
2023-01-22T03:27:31.641Z,102932.28
2023-01-22T03:30:01.146Z,102931.94
2023-01-22T03:32:31.805Z,102935.91
2023-01-22T03:35:01.817Z,102932.81
2023-01-22T03:37:31.335Z,102933.22
2023-01-22T03:40:03.439Z,102933.38
2023-01-22T03:42:33.179Z,102923.00
2023-01-22T03:45:02.601Z,102919.00
2023-01-22T03:47:32.122Z,102931.34
2023-01-22T03:50:01.757Z,102911.44
2023-01-22T03:52:31.216Z,102916.50
2023-01-22T03:55:03.502Z,102917.94
2023-01-22T03:57:33.571Z,102918.13
2023-01-22T04:00:07.003Z,102918.84
2023-01-22T04:02:37.860Z,102915.25
2023-01-22T04:05:08.115Z,102920.13
2023-01-22T04:07:37.562Z,102915.44
2023-01-22T04:10:11.527Z,102920.66
2023-01-22T04:12:40.929Z,102921.41
2023-01-22T04:15:12.417Z,102916.13
2023-01-22T04:17:41.836Z,102917.59
2023-01-22T04:20:13.400Z,102906.50
2023-01-22T04:22:42.847Z,102908.31
2023-01-22T04:25:15.027Z,102909.06
2023-01-22T04:27:44.489Z,102912.50
2023-01-22T04:30:15.269Z,102907.06
2023-01-22T04:32:44.655Z,102908.16
2023-01-22T04:35:14.344Z,102906.50
2023-01-22T04:37:43.779Z,102906.91
2023-01-22T04:40:17.042Z,102895.47
2023-01-22T04:42:46.594Z,102890.59
2023-01-22T04:45:16.466Z,102896.00
2023-01-22T04:47:46.913Z,102889.84
2023-01-22T04:50:20.333Z,102888.56
2023-01-22T04:52:50.078Z,102884.75
2023-01-22T04:55:22.251Z,102884.41
2023-01-22T04:57:51.717Z,102882.56
2023-01-22T05:00:22.187Z,102888.38
2023-01-22T05:02:51.619Z,102891.28
2023-01-22T05:05:21.482Z,102883.31
2023-01-22T05:07:50.859Z,102885.28
2023-01-22T05:10:23.213Z,102885.50
2023-01-22T05:12:53.032Z,102888.22
2023-01-22T05:15:25.062Z,102885.84
2023-01-22T05:17:54.864Z,102889.47
2023-01-22T05:20:25.556Z,102896.00
2023-01-22T05:22:55.177Z,102887.31
2023-01-22T05:25:27.222Z,102891.31
2023-01-22T05:27:56.695Z,102891.84
2023-01-22T05:30:26.126Z,102884.94
2023-01-22T05:32:58.926Z,102894.19
2023-01-22T05:35:28.700Z,102889.31
2023-01-22T05:37:59.131Z,102884.03
2023-01-22T05:40:31.147Z,102884.38
2023-01-22T05:43:00.607Z,102884.03
2023-01-22T05:45:29.991Z,102879.31
2023-01-22T05:47:59.390Z,102888.75
2023-01-22T05:50:28.861Z,102886.56
2023-01-22T05:52:58.626Z,102888.75
2023-01-22T05:55:33.618Z,102893.84
2023-01-22T05:58:05.450Z,102900.72
2023-01-22T06:00:35.731Z,102889.31
2023-01-22T06:03:05.422Z,102894.91
2023-01-22T06:05:34.911Z,102892.03
2023-01-22T06:08:04.420Z,102890.38
2023-01-22T06:10:36.824Z,102887.81
2023-01-22T06:13:06.448Z,102893.47
2023-01-22T06:15:35.951Z,102896.00
2023-01-22T06:18:05.830Z,102902.00
2023-01-22T06:20:36.664Z,102899.25
2023-01-22T06:23:07.574Z,102897.25
2023-01-22T06:25:39.563Z,102883.63
2023-01-22T06:28:08.994Z,102891.63
2023-01-22T06:30:38.868Z,102878.78
2023-01-22T06:33:08.799Z,102885.28
2023-01-22T06:35:38.232Z,102890.19
2023-01-22T06:38:07.743Z,102888.72
2023-01-22T06:40:39.731Z,102884.75
2023-01-22T06:43:10.824Z,102888.53
2023-01-22T06:45:41.151Z,102889.09
2023-01-22T06:48:13.233Z,102886.00
2023-01-22T06:50:42.693Z,102891.44
2023-01-22T06:53:12.482Z,102893.44
2023-01-22T06:55:44.517Z,102904.69
2023-01-22T06:58:14.220Z,102894.16
2023-01-22T07:00:43.614Z,102897.41
2023-01-22T07:03:14.183Z,102898.69
2023-01-22T07:05:43.602Z,102902.50
2023-01-22T07:08:16.568Z,102899.78
2023-01-22T07:10:48.621Z,102904.25
2023-01-22T07:13:18.243Z,102906.09
2023-01-22T07:15:47.677Z,102904.25
2023-01-22T07:18:19.931Z,102909.72
2023-01-22T07:20:49.723Z,102906.28
2023-01-22T07:23:19.227Z,102906.09
2023-01-22T07:25:51.207Z,102901.38
2023-01-22T07:28:20.657Z,102911.88
2023-01-22T07:30:50.313Z,102911.16
2023-01-22T07:33:19.812Z,102913.16
2023-01-22T07:35:56.335Z,102910.72
2023-01-22T07:38:25.986Z,102908.22
2023-01-22T07:41:04.354Z,102908.06
2023-01-22T07:43:35.501Z,102908.06
2023-01-22T07:46:05.349Z,102909.47
2023-01-22T07:48:34.753Z,102906.94
2023-01-22T07:51:08.493Z,102914.44
2023-01-22T07:53:38.209Z,102913.50
2023-01-22T07:56:10.786Z,102908.91
2023-01-22T07:58:41.222Z,102912.19
2023-01-22T08:01:11.496Z,102913.22
2023-01-22T08:03:41.196Z,102918.50
2023-01-22T08:06:11.256Z,102925.25
2023-01-22T08:08:42.692Z,102928.16
2023-01-22T08:11:15.233Z,102931.97
2023-01-22T08:13:44.889Z,102932.84
2023-01-22T08:16:14.621Z,102945.06
2023-01-22T08:18:44.028Z,102948.50
2023-01-22T08:21:13.600Z,102954.16
2023-01-22T08:23:46.159Z,102948.47
2023-01-22T08:26:19.550Z,102946.19
2023-01-22T08:28:49.021Z,102954.38
2023-01-22T08:31:27.437Z,102957.28
2023-01-22T08:33:57.995Z,102958.00
2023-01-22T08:36:27.490Z,102955.66
2023-01-22T08:38:57.191Z,102952.00
2023-01-22T08:41:29.222Z,102947.84
2023-01-22T08:43:58.660Z,102947.44
2023-01-22T08:46:28.072Z,102951.84
2023-01-22T08:48:57.686Z,102948.91
2023-01-22T08:51:27.470Z,102948.00
2023-01-22T08:53:56.906Z,102950.38
2023-01-22T08:56:28.941Z,102941.66
2023-01-22T08:59:00.753Z,102944.22
2023-01-22T09:01:30.292Z,102940.19
2023-01-22T09:04:02.661Z,102943.47
2023-01-22T09:06:32.091Z,102948.00
2023-01-22T09:09:01.876Z,102934.91
2023-01-22T09:11:34.452Z,102944.19
2023-01-22T09:14:04.160Z,102934.34
2023-01-22T09:16:35.612Z,102939.63
2023-01-22T09:19:05.048Z,102929.81
2023-01-22T09:21:37.341Z,102927.84
2023-01-22T09:24:07.287Z,102932.19
2023-01-22T09:26:40.723Z,102931.44
2023-01-22T09:29:10.166Z,102932.16
2023-01-22T09:31:40.101Z,102930.91
2023-01-22T09:34:09.505Z,102932.69
2023-01-22T09:36:38.916Z,102926.34
2023-01-22T09:39:08.322Z,102928.53
2023-01-22T09:41:42.015Z,102928.53
2023-01-22T09:44:16.051Z,102935.44
2023-01-22T09:46:49.001Z,102936.88
2023-01-22T09:49:20.194Z,102938.69
2023-01-22T09:51:53.125Z,102929.88
2023-01-22T09:54:22.537Z,102930.56
2023-01-22T09:56:56.352Z,102931.66
2023-01-22T09:59:29.236Z,102935.56
2023-01-22T10:02:01.555Z,102918.13
2023-01-22T10:04:36.962Z,102943.47
2023-01-22T10:07:10.122Z,102935.94
2023-01-22T10:09:40.312Z,102942.59
2023-01-22T10:12:15.745Z,102958.31
2023-01-22T10:14:45.633Z,102969.19
2023-01-22T10:17:20.388Z,102975.97
2023-01-22T10:19:51.749Z,102979.25
2023-01-22T10:22:23.480Z,102984.16
2023-01-22T10:24:53.848Z,102982.28
2023-01-22T10:27:28.640Z,102981.97
2023-01-22T10:30:01.400Z,102986.75
2023-01-22T10:32:32.971Z,102985.81
2023-01-22T10:35:05.103Z,102979.72
2023-01-22T10:37:46.188Z,102987.09
2023-01-22T10:40:26.580Z,102981.16
2023-01-22T10:43:14.932Z,102979.31
2023-01-22T10:45:54.333Z,102978.91
2023-01-22T10:48:24.619Z,102972.97
2023-01-22T10:51:03.628Z,102975.38
2023-01-22T10:53:35.510Z,102965.63
2023-01-22T10:56:06.397Z,102964.13
2023-01-22T10:58:42.977Z,102960.66
2023-01-22T11:01:28.147Z,102959.03
2023-01-22T11:03:57.763Z,102954.22
2023-01-22T11:06:29.311Z,102956.63
2023-01-22T11:09:03.057Z,102961.72
2023-01-22T11:11:37.896Z,102965.56
2023-01-22T11:14:14.730Z,102957.88
2023-01-22T11:16:45.423Z,102959.66
2023-01-22T11:19:18.162Z,102957.63
2023-01-22T11:21:53.086Z,102948.00
2023-01-22T11:24:27.353Z,102952.34
2023-01-22T11:27:09.401Z,102951.59
2023-01-22T11:29:54.360Z,102956.03
2023-01-22T11:32:38.500Z,102947.13
2023-01-22T11:35:19.452Z,102936.81
2023-01-22T11:37:59.970Z,102943.66
2023-01-22T11:40:31.292Z,102947.94
2023-01-22T11:43:18.573Z,102944.09
2023-01-22T11:45:57.171Z,102945.00
2023-01-22T11:48:38.146Z,102943.59
2023-01-22T11:51:27.092Z,102942.91
2023-01-22T11:54:03.035Z,102940.88
2023-01-22T11:56:42.406Z,102925.19
2023-01-22T11:59:15.519Z,102927.97
2023-01-22T12:01:59.420Z,102932.66
2023-01-22T12:04:44.662Z,102934.09
2023-01-22T12:07:38.003Z,102931.91
2023-01-22T12:10:22.156Z,102945.41
2023-01-22T12:12:58.653Z,102941.72
2023-01-22T12:15:39.761Z,102933.69
2023-01-22T12:18:33.040Z,102938.38
2023-01-22T12:21:10.497Z,102936.56
2023-01-22T12:23:43.537Z,102937.88
2023-01-22T12:26:17.872Z,102940.91
2023-01-22T12:28:50.418Z,102938.03
2023-01-22T12:31:23.357Z,102938.91
2023-01-22T12:33:55.506Z,102935.78
2023-01-22T12:36:26.577Z,102937.75
2023-01-22T12:38:57.546Z,102937.25
2023-01-22T12:41:38.367Z,102946.53
2023-01-22T12:44:18.509Z,102945.63
2023-01-22T12:46:56.133Z,102942.69
2023-01-22T12:49:29.145Z,102941.94
2023-01-22T12:51:59.910Z,102946.13
2023-01-22T12:54:36.268Z,102949.91
2023-01-22T12:57:26.127Z,102943.38
2023-01-22T12:59:57.114Z,102949.22
2023-01-22T13:02:40.138Z,102945.50
2023-01-22T13:05:21.543Z,102947.66
2023-01-22T13:07:52.219Z,102949.13
2023-01-22T13:10:29.371Z,102940.66
2023-01-22T13:13:01.124Z,102942.28
2023-01-22T13:15:32.530Z,102950.59
2023-01-22T13:18:07.941Z,102946.59
2023-01-22T13:20:51.382Z,102950.94
2023-01-22T13:23:21.755Z,102937.03
2023-01-22T13:25:55.781Z,102926.47
2023-01-22T13:28:25.716Z,102934.16
2023-01-22T13:30:59.743Z,102936.72
2023-01-22T13:33:29.291Z,102946.13
2023-01-22T13:36:04.249Z,102938.72
2023-01-22T13:38:35.358Z,102966.28
2023-01-22T13:41:08.549Z,102964.72
2023-01-22T13:43:39.304Z,102971.91
2023-01-22T13:46:09.367Z,102996.66
2023-01-22T13:48:38.810Z,102989.91
2023-01-22T13:51:18.249Z,103004.34
2023-01-22T13:53:51.171Z,103016.06
2023-01-22T13:56:23.853Z,103010.53
2023-01-22T13:58:53.433Z,103017.38
2023-01-22T14:01:34.314Z,103024.38
2023-01-22T14:04:04.921Z,103024.94
2023-01-22T14:06:45.484Z,103010.09
2023-01-22T14:09:15.244Z,103021.75
2023-01-22T14:11:44.650Z,103047.53
2023-01-22T14:14:18.648Z,103055.50
2023-01-22T14:16:48.515Z,103063.59
2023-01-22T14:19:18.157Z,103060.97
2023-01-22T14:21:53.175Z,103063.03
2023-01-22T14:24:22.593Z,103051.41
2023-01-22T14:26:52.076Z,103059.75
2023-01-22T14:29:21.505Z,103065.94
2023-01-22T14:31:51.010Z,103066.03
2023-01-22T14:34:20.407Z,103061.41
2023-01-22T14:36:54.137Z,103062.31
2023-01-22T14:39:23.588Z,103065.53
2023-01-22T14:41:53.002Z,103060.06
2023-01-22T14:44:22.468Z,103065.44
2023-01-22T14:46:54.684Z,103061.00
2023-01-22T14:49:24.257Z,103061.06
2023-01-22T14:51:57.476Z,103059.75
2023-01-22T14:54:27.690Z,103060.16
2023-01-22T14:56:58.301Z,103057.84
2023-01-22T14:59:27.814Z,103058.31
2023-01-22T15:01:57.349Z,103063.63
2023-01-22T15:04:26.862Z,103067.28
2023-01-22T15:06:58.900Z,103072.28
2023-01-22T15:09:28.447Z,103069.28
2023-01-22T15:11:57.871Z,103075.88
2023-01-22T15:14:27.606Z,103083.91
2023-01-22T15:16:57.021Z,103086.72
2023-01-22T15:19:26.528Z,103080.53
2023-01-22T15:21:58.618Z,103083.59
2023-01-22T15:24:27.999Z,103094.84
2023-01-22T15:26:57.401Z,103098.72
2023-01-22T15:29:26.913Z,103096.41
2023-01-22T15:31:56.439Z,103101.09
2023-01-22T15:34:26.350Z,103100.94
2023-01-22T15:36:58.346Z,103103.81
2023-01-22T15:39:27.929Z,103100.69
2023-01-22T15:41:57.357Z,103082.25
2023-01-22T15:44:26.787Z,103106.47
2023-01-22T15:46:58.733Z,103114.69
2023-01-22T15:49:28.276Z,103128.97
2023-01-22T15:52:00.306Z,103137.44
2023-01-22T15:54:29.721Z,103124.34
2023-01-22T15:56:59.282Z,103123.41
2023-01-22T15:59:28.658Z,103122.91
2023-01-22T16:01:58.060Z,103131.19
2023-01-22T16:04:27.519Z,103135.06
2023-01-22T16:06:56.929Z,103139.41
2023-01-22T16:09:29.151Z,103127.47
2023-01-22T16:11:58.729Z,103139.13
2023-01-22T16:14:29.146Z,103145.03
2023-01-22T16:16:58.658Z,103141.31
2023-01-22T16:19:28.103Z,103133.06
2023-01-22T16:21:57.604Z,103134.22
2023-01-22T16:24:29.623Z,103129.25
2023-01-22T16:26:59.045Z,103130.97
2023-01-22T16:29:28.532Z,103136.47
2023-01-22T16:31:58.189Z,103131.75
2023-01-22T16:34:27.605Z,103131.75
2023-01-22T16:36:59.495Z,103129.94
2023-01-22T16:39:33.890Z,103135.44
2023-01-22T16:42:03.332Z,103125.63
2023-01-22T16:44:33.785Z,103126.13
2023-01-22T16:47:03.426Z,103118.84
2023-01-22T16:49:34.530Z,103127.13
2023-01-22T16:52:20.736Z,103127.81
2023-01-22T16:54:54.611Z,103130.28
2023-01-22T16:57:24.099Z,103133.56
2023-01-22T16:59:53.567Z,103132.31
2023-01-22T17:02:23.057Z,103126.31
2023-01-22T17:04:53.355Z,103134.72
2023-01-22T17:07:33.180Z,103135.03
2023-01-22T17:10:06.894Z,103140.13
2023-01-22T17:12:36.880Z,103141.47
2023-01-22T17:15:07.010Z,103139.13
2023-01-22T17:17:36.475Z,103135.69
2023-01-22T17:20:06.083Z,103131.16
2023-01-22T17:22:36.117Z,103135.13
2023-01-22T17:25:09.496Z,103128.56
2023-01-22T17:27:39.698Z,103127.50
2023-01-22T17:30:11.574Z,103121.66
2023-01-22T17:32:41.011Z,103129.47
2023-01-22T17:35:13.433Z,103130.78
2023-01-22T17:37:42.846Z,103124.81
2023-01-22T17:40:15.772Z,103132.41
2023-01-22T17:42:45.197Z,103133.94
2023-01-22T17:45:14.890Z,103133.19
2023-01-22T17:47:46.570Z,103132.63
2023-01-22T17:50:15.984Z,103131.91
2023-01-22T17:52:45.410Z,103124.81
2023-01-22T17:55:17.769Z,103128.59
2023-01-22T17:57:47.388Z,103133.72
2023-01-22T18:00:18.598Z,103130.09
2023-01-22T18:02:49.901Z,103138.09
2023-01-22T18:05:19.896Z,103134.81
2023-01-22T18:07:49.500Z,103134.44
2023-01-22T18:10:21.845Z,103135.94
2023-01-22T18:12:51.286Z,103138.81
2023-01-22T18:15:21.258Z,103134.44
2023-01-22T18:17:51.525Z,103128.66
2023-01-22T18:20:21.118Z,103141.03
2023-01-22T18:22:50.684Z,103137.03
2023-01-22T18:25:22.875Z,103144.53
2023-01-22T18:27:52.288Z,103141.44
2023-01-22T18:30:21.781Z,103147.06
2023-01-22T18:32:51.225Z,103139.97
2023-01-22T18:35:21.115Z,103138.91
2023-01-22T18:37:52.175Z,103140.16
2023-01-22T18:40:24.258Z,103144.31
2023-01-22T18:42:53.687Z,103133.63
2023-01-22T18:45:23.155Z,103141.06
2023-01-22T18:47:53.463Z,103147.97
2023-01-22T18:50:23.405Z,103142.88
2023-01-22T18:52:52.848Z,103147.97
2023-01-22T18:55:24.887Z,103147.53
2023-01-22T18:58:02.088Z,103133.56
2023-01-22T19:00:31.554Z,103120.28
2023-01-22T19:03:01.770Z,103128.78
2023-01-22T19:05:31.397Z,103136.72
2023-01-22T19:08:00.846Z,103141.09
2023-01-22T19:10:32.868Z,103148.50
2023-01-22T19:13:02.268Z,103159.97
2023-01-22T19:15:32.488Z,103162.47
2023-01-22T19:18:03.355Z,103160.28
2023-01-22T19:20:33.063Z,103163.94
2023-01-22T19:23:02.563Z,103165.19
2023-01-22T19:25:34.617Z,103160.78
2023-01-22T19:28:04.031Z,103164.75
2023-01-22T19:30:33.410Z,103173.28
2023-01-22T19:33:03.101Z,103167.09
2023-01-22T19:35:32.526Z,103158.78
2023-01-22T19:38:01.939Z,103163.69
2023-01-22T19:40:33.965Z,103163.78
2023-01-22T19:43:03.399Z,103162.28
2023-01-22T19:45:32.769Z,103159.00
2023-01-22T19:48:06.775Z,103162.28
2023-01-22T19:50:36.625Z,103168.78
2023-01-22T19:53:06.004Z,103153.94
2023-01-22T19:55:41.132Z,103157.53
2023-01-22T19:58:10.542Z,103158.72
2023-01-22T20:00:39.985Z,103163.44
2023-01-22T20:03:09.451Z,103164.25
2023-01-22T20:05:42.542Z,103163.34
2023-01-22T20:08:11.955Z,103167.13
2023-01-22T20:10:44.328Z,103171.78
2023-01-22T20:13:14.441Z,103179.84
2023-01-22T20:15:45.141Z,103185.66
2023-01-22T20:18:14.601Z,103177.31
2023-01-22T20:20:44.106Z,103191.47
2023-01-22T20:23:13.959Z,103183.88
2023-01-22T20:25:46.020Z,103187.84
2023-01-22T20:28:16.334Z,103189.81
2023-01-22T20:30:46.277Z,103187.97
2023-01-22T20:33:15.719Z,103177.59
2023-01-22T20:35:45.320Z,103181.84
2023-01-22T20:38:14.745Z,103180.53
2023-01-22T20:40:47.452Z,103180.72
2023-01-22T20:43:17.867Z,103186.06
2023-01-22T20:45:47.530Z,103190.34
2023-01-22T20:48:17.229Z,103183.97
2023-01-22T20:50:46.683Z,103182.00
2023-01-22T20:53:16.124Z,103183.16
2023-01-22T20:55:49.013Z,103189.03
2023-01-22T20:58:18.602Z,103188.72
2023-01-22T21:00:48.005Z,103185.06
2023-01-22T21:03:17.417Z,103171.25
2023-01-22T21:05:47.065Z,103167.25
2023-01-22T21:08:17.536Z,103172.03
2023-01-22T21:10:58.073Z,103165.81
2023-01-22T21:13:28.054Z,103164.38
2023-01-22T21:15:57.666Z,103153.97
2023-01-22T21:18:27.105Z,103155.81
2023-01-22T21:20:56.521Z,103151.63
2023-01-22T21:23:25.971Z,103155.81
2023-01-22T21:25:57.991Z,103151.28
2023-01-22T21:28:27.419Z,103147.66
2023-01-22T21:30:56.861Z,103152.75
2023-01-22T21:33:26.279Z,103146.53
2023-01-22T21:35:55.657Z,103142.88
2023-01-22T21:38:25.088Z,103139.97
2023-01-22T21:40:54.557Z,103143.44
2023-01-22T21:43:39.046Z,103144.72
2023-01-22T21:46:20.691Z,103153.44
2023-01-22T21:48:50.209Z,103156.72
2023-01-22T21:51:19.637Z,103161.66
2023-01-22T21:53:49.359Z,103156.72
2023-01-22T21:56:18.838Z,103163.25
2023-01-22T21:58:51.173Z,103170.53
2023-01-22T22:01:22.794Z,103176.75
2023-01-22T22:03:52.243Z,103178.41
2023-01-22T22:06:21.800Z,103185.50
2023-01-22T22:08:51.228Z,103182.75
2023-01-22T22:11:21.192Z,103191.16
2023-01-22T22:13:53.309Z,103194.59
2023-01-22T22:16:23.497Z,103205.19
2023-01-22T22:18:52.962Z,103201.53
2023-01-22T22:21:23.047Z,103208.09
2023-01-22T22:23:52.676Z,103201.91
2023-01-22T22:26:22.153Z,103203.69
2023-01-22T22:28:54.728Z,103208.06
2023-01-22T22:31:24.425Z,103204.06
2023-01-22T22:33:55.714Z,103212.81
2023-01-22T22:36:27.916Z,103204.88
2023-01-22T22:38:57.622Z,103204.47
2023-01-22T22:41:29.350Z,103198.69
2023-01-22T22:44:01.435Z,103202.50
2023-01-22T22:46:32.551Z,103194.69
2023-01-22T22:49:03.453Z,103194.31
2023-01-22T22:51:34.556Z,103188.66
2023-01-22T22:54:06.249Z,103183.56
2023-01-22T22:56:35.909Z,103183.38
2023-01-22T22:59:08.159Z,103184.81
2023-01-22T23:01:37.890Z,103174.63
2023-01-22T23:04:07.763Z,103173.59
2023-01-22T23:06:38.881Z,103164.50
2023-01-22T23:09:08.335Z,103158.84
2023-01-22T23:11:38.596Z,103159.03
2023-01-22T23:14:11.539Z,103160.84
2023-01-22T23:16:43.014Z,103157.75
2023-01-22T23:19:16.437Z,103156.09
2023-01-22T23:21:46.627Z,103155.38
2023-01-22T23:24:16.780Z,103152.66
2023-01-22T23:26:49.139Z,103156.50
2023-01-22T23:29:23.048Z,103152.13
2023-01-22T23:31:53.035Z,103143.38
2023-01-22T23:34:23.809Z,103143.94
2023-01-22T23:36:54.234Z,103133.19
2023-01-22T23:39:24.453Z,103140.09
2023-01-22T23:41:53.853Z,103133.97
2023-01-22T23:44:25.827Z,103141.56
2023-01-22T23:46:55.194Z,103139.78
2023-01-22T23:49:24.605Z,103145.44
2023-01-22T23:51:53.993Z,103145.44
2023-01-22T23:54:23.405Z,103139.38
2023-01-22T23:56:52.813Z,103140.09
2023-01-22T23:59:25.569Z,103139.53
